Track Тремпольцева Анна

Time Latitude Longitude Accuracy (66% radius in meters) Altitude (meters) Speed (km/hour) Bearing (degrees) Battery (%) GPS flag
09:25:43 55.885059 37.930520 13 189 1.4599999189377 29.124755859375 92 1 delete
09:24:54 55.885224 37.930357 11.5 201.89999389648 1.6699999570847 175.38024902344 92 1 delete
09:23:52 55.884738 37.930954 14 176.39999389648 0.69999998807907 147.73864746094 92 1 delete
09:23:13 55.885114 37.930743 26 214.80000305176 0.77999997138977 332.20458984375 92 1 delete
09:22:31 55.885256 37.930628 55 218.19999694824 0.38999998569489 164.52575683594 92 1 delete
09:20:21 55.884605 37.930508 28.5 183.30000305176 0.9099999666214 95.07568359375 92 1 delete
09:17:23 55.884915 37.931222 52.5 204.30000305176 1 23.477783203125 92 1 delete
09:16:31 55.884913 37.930732 16 198.80000305176 0.95999997854233 137.70263671875 92 1 delete
09:15:01 55.884885 37.930864 25.5 231.39999389648 0.17000000178814 13.441772460938 92 1 delete
09:14:16 55.884883 37.930680 13 185 0.38999998569489 98.580322265625 92 1 delete
09:13:22 55.884982 37.930726 40 131.80000305176 0.66999995708466 183.60900878906 92 1 delete
09:11:39 55.884866 37.930794 22 173 0 0 92 1 delete
09:09:49 55.885011 37.930729 14.5 206.89999389648 0.71999996900558 194.15588378906 93 1 delete
09:09:11 55.884973 37.930927 16 204.80000305176 1.5299999713898 289.52270507812 93 1 delete
09:08:34 55.884744 37.930976 20 165.10000610352 0.21999999880791 88.13232421875 93 1 delete
09:07:56 55.884810 37.930449 14.5 185.30000305176 0.03999999910593 34.837646484375 93 1 delete
08:10:39 55.884953 37.930484 8 222.10000610352 0 0 96 1 delete
08:10:27 55.884973 37.930459 15 210.19999694824 0.12999999523163 346.54174804688 96 1 delete
08:10:24 55.884646 37.930336 18.5 164.10000610352 0.43999999761581 139.7021484375 96 1 delete
08:09:17 55.885002 37.930308 8.5 174.60000610352 0 0 96 1 delete
08:09:08 55.885002 37.930308 13 174.60000610352 0 0 96 1 delete
08:09:05 55.885021 37.930302 15.5 171.69999694824 0.34000000357628 321.24572753906 96 1 delete
08:09:02 55.885114 37.930474 13 158.69999694824 1.1699999570847 180.8349609375 96 1 delete
08:07:57 55.884919 37.930366 11 263.39999389648 0 0 96 1 delete
08:07:50 55.884937 37.930253 14.5 236.69999694824 0.20999999344349 299.16320800781 96 1 delete
07:20:40 55.884953 37.930327 10 230.19999694824 0 0 99 1 delete
07:20:37 55.884993 37.930345 10 216.30000305176 0.029999999329448 279.4482421875 99 1 delete
07:19:30 55.884911 37.930352 10 180.60000610352 0 0 99 1 delete
07:19:27 55.884911 37.930358 10 187.89999389648 0.03999999910593 332.841796875 99 1 delete
07:19:23 55.884972 37.930283 8 180.60000610352 0.34999999403954 82.512817382812 99 1 delete
07:18:20 55.884946 37.930479 10 184.30000305176 0 0 99 1 delete
07:18:17 55.884964 37.930484 15 172.80000305176 0.19999998807907 200.59387207031 99 1 delete
07:17:10 55.884960 37.930367 10 178.39999389648 0 0 99 1 delete
07:17:07 55.885042 37.930388 17.5 178.80000305176 0.15999999642372 21.708984375 99 1 delete
07:17:03 55.884946 37.930334 11 176.19999694824 0.63999998569489 341.77368164062 99 1 delete
07:16:00 55.885033 37.930437 9 154.60000610352 0 0 99 1 delete
07:15:57 55.885015 37.930414 12.5 156.69999694824 0.029999999329448 315.80749511719 99 1 delete
07:15:53 55.884953 37.930475 8 178 0.47999998927116 348.08532714844 99 1 delete
07:14:48 55.884920 37.930391 8.5 226.30000305176 0 0 99 1 delete
07:14:41 55.884946 37.930360 8 233.60000610352 0.25 340.1806640625 99 1 delete
09:58:39 55.738370 37.298739 2 177.30000305176 0 0 76 1 delete
09:58:27 55.738342 37.298699 1.5 176.80000305176 0 0 76 1 delete
09:58:18 55.738342 37.298699 1 176.80000305176 0 0 76 1 delete
09:58:06 55.738342 37.298699 1 176.80000305176 0 0 76 1 delete
09:57:57 55.738342 37.298699 1.5 176.80000305176 0 0 76 1 delete
09:57:45 55.738342 37.298699 1.5 176.80000305176 0 0 76 1 delete
09:57:36 55.738342 37.298699 1.5 176.80000305176 0 0 76 1 delete
09:57:24 55.738342 37.298699 1.5 176.80000305176 0 0 76 1 delete
09:57:15 55.738342 37.298699 1 176.80000305176 0 0 76 1 delete
09:57:03 55.738342 37.298699 1 176.80000305176 0 0 76 1 delete